Time;durP1;ratioP1;P1;durP2;ratioP2;P2;SDS_P1;SDS_P2;PMS_P1;PMS_P2;Temp;Humidity;BMP_temperature;BMP_pressure;BME280_temperature;BME280_humidity;BME280_pressure;Samples;Min_cycle;Max_cycle;Signal;HPM_P1;HPM_P2
2023/06/24 00:01:13;;;;;;;;;7.80;7.80;;;;;16.77;66.51;100731.69;5098555;28;9503;-58
2023/06/24 00:03:46;;;;;;;;;9.50;8.25;;;;;16.74;66.01;100732.84;5098862;28;8833;-59
2023/06/24 00:06:18;;;;;;;;;4.00;3.60;;;;;16.70;66.14;100736.78;5098752;28;9535;-60
2023/06/24 00:08:46;;;;;;;;;7.80;7.00;;;;;16.66;66.87;100737.22;5099003;28;8837;-59
2023/06/24 00:11:13;;;;;;;;;5.00;3.75;;;;;16.61;66.36;100732.25;5098977;28;8899;-60
2023/06/24 00:13:41;;;;;;;;;6.00;6.00;;;;;16.57;66.46;100732.69;5098102;28;8852;-60
2023/06/24 00:16:09;;;;;;;;;7.00;6.80;;;;;16.54;66.79;100731.13;5097761;28;8857;-60
2023/06/24 00:18:37;;;;;;;;;7.00;6.50;;;;;16.52;66.39;100724.19;5098765;28;8841;-60
2023/06/24 00:21:05;;;;;;;;;7.80;7.80;;;;;16.49;67.18;100725.31;5097393;28;8849;-60
2023/06/24 00:23:34;;;;;;;;;7.50;6.50;;;;;16.46;66.58;100722.03;5097517;28;8863;-60
2023/06/24 00:26:01;;;;;;;;;9.75;9.25;;;;;16.43;67.06;100722.34;5096711;28;8951;-60
2023/06/24 00:28:29;;;;;;;;;6.75;6.75;;;;;16.40;66.88;100723.47;5097168;28;8859;-60
2023/06/24 00:30:57;;;;;;;;;9.00;8.00;;;;;16.38;67.23;100728.13;5096916;28;8870;-60
2023/06/24 00:33:25;;;;;;;;;6.50;6.50;;;;;16.33;67.29;100727.66;5097700;28;9533;-60
2023/06/24 00:35:53;;;;;;;;;8.50;7.00;;;;;16.29;66.96;100722.69;5097024;28;8857;-59
2023/06/24 00:38:21;;;;;;;;;9.50;9.50;;;;;16.26;67.24;100725.69;5098238;28;8880;-58
2023/06/24 00:40:48;;;;;;;;;11.50;9.00;;;;;16.22;67.19;100723.41;5098097;28;8845;-59
2023/06/24 00:43:16;;;;;;;;;8.50;6.75;;;;;16.20;67.40;100721.69;5098377;28;8833;-59
2023/06/24 00:45:48;;;;;;;;;12.00;10.00;;;;;16.18;67.59;100723.66;5098509;28;8968;-60
2023/06/24 00:48:16;;;;;;;;;7.00;6.75;;;;;16.17;67.61;100729.22;5097460;28;8833;-58
2023/06/24 00:50:45;;;;;;;;;8.50;8.50;;;;;16.14;67.64;100726.78;5098036;28;8829;-59
2023/06/24 00:53:13;;;;;;;;;12.00;9.75;;;;;16.11;67.34;100726.19;5097836;28;8930;-58
2023/06/24 00:55:40;;;;;;;;;7.50;6.75;;;;;16.09;67.58;100723.63;5097403;28;9627;-59
2023/06/24 00:58:09;;;;;;;;;9.75;9.00;;;;;16.07;68.01;100730.16;5097144;28;8825;-59
2023/06/24 01:00:37;;;;;;;;;7.50;6.50;;;;;16.05;67.72;100730.28;5097518;28;8833;-58
2023/06/24 01:03:05;;;;;;;;;7.00;7.00;;;;;16.02;67.70;100730.59;5096834;28;8832;-58
2023/06/24 01:05:35;;;;;;;;;8.50;7.50;;;;;15.98;68.02;100729.13;5096793;28;8833;-59
2023/06/24 01:08:03;;;;;;;;;5.25;5.00;;;;;15.95;67.79;100733.94;5097384;28;8845;-60
2023/06/24 01:10:31;;;;;;;;;10.00;9.00;;;;;15.92;68.21;100731.53;5097491;28;8837;-57
2023/06/24 01:12:58;;;;;;;;;10.00;9.25;;;;;15.91;68.03;100727.16;5096295;28;8805;-60
2023/06/24 01:15:28;;;;;;;;;11.00;9.00;;;;;15.89;67.70;100724.59;5096670;28;8876;-59
2023/06/24 01:17:56;;;;;;;;;8.50;8.00;;;;;15.89;67.93;100726.41;5096924;28;8833;-59
2023/06/24 01:20:24;;;;;;;;;9.00;9.00;;;;;15.87;68.18;100729.25;5096829;28;8813;-60
2023/06/24 01:22:53;;;;;;;;;12.50;11.50;;;;;15.85;68.25;100730.38;5096284;28;8821;-58
2023/06/24 01:25:21;;;;;;;;;11.50;10.00;;;;;15.82;68.00;100730.63;5096103;28;8856;-59
2023/06/24 01:27:50;;;;;;;;;9.00;7.50;;;;;15.80;68.35;100728.09;5096695;28;8831;-59
2023/06/24 01:30:17;;;;;;;;;7.50;7.00;;;;;15.79;68.61;100731.75;5097053;28;8825;-59
2023/06/24 01:32:45;;;;;;;;;11.50;11.25;;;;;15.78;67.59;100729.22;5096363;28;8910;-59
2023/06/24 01:35:14;;;;;;;;;9.25;7.00;;;;;15.76;68.09;100728.50;5096241;28;8848;-60
2023/06/24 01:37:41;;;;;;;;;6.00;5.00;;;;;15.72;68.68;100719.88;5096372;28;8968;-60
2023/06/24 01:40:10;;;;;;;;;7.25;6.50;;;;;15.70;68.60;100715.63;5096894;28;9564;-60
2023/06/24 01:42:37;;;;;;;;;10.00;10.00;;;;;15.67;68.01;100699.75;5096445;28;8849;-57
2023/06/24 01:45:05;;;;;;;;;9.25;9.25;;;;;15.65;68.85;100701.75;5096088;28;8829;-58
2023/06/24 01:47:33;;;;;;;;;9.50;9.00;;;;;15.63;68.77;100698.34;5096784;28;8834;-59
2023/06/24 01:50:00;;;;;;;;;11.00;9.75;;;;;15.63;68.78;100703.72;5096524;28;8887;-59
2023/06/24 01:52:28;;;;;;;;;6.00;6.00;;;;;15.60;68.88;100707.53;5096806;28;9827;-59
2023/06/24 01:54:56;;;;;;;;;12.00;10.00;;;;;15.60;68.40;100714.72;5095811;28;8956;-58
2023/06/24 01:57:23;;;;;;;;;12.50;12.50;;;;;15.60;68.43;100715.56;5096030;28;8837;-60
2023/06/24 01:59:51;;;;;;;;;9.50;9.00;;;;;15.59;68.60;100726.44;5096690;28;8863;-59
2023/06/24 02:02:20;;;;;;;;;11.00;8.00;;;;;15.59;68.57;100721.06;5096482;28;8884;-58
2023/06/24 02:04:48;;;;;;;;;6.50;6.50;;;;;15.57;68.92;100720.38;5096696;28;8859;-60
2023/06/24 02:07:15;;;;;;;;;12.00;12.00;;;;;15.55;68.33;100728.53;5095976;28;8853;-57
2023/06/24 02:09:43;;;;;;;;;9.00;8.50;;;;;15.54;68.73;100726.00;5095793;28;8845;-57
2023/06/24 02:12:11;;;;;;;;;3.00;2.00;;;;;15.51;68.37;100719.06;5096521;28;8837;-58
2023/06/24 02:14:39;;;;;;;;;7.00;5.25;;;;;15.50;69.02;100711.16;5095175;28;8825;-59
2023/06/24 02:20:10;;;;;;;;;10.00;9.00;;;;;15.47;69.12;100716.78;5094642;28;8857;-60
2023/06/24 02:22:38;;;;;;;;;10.00;9.25;;;;;15.47;68.94;100714.09;5095486;28;8857;-60
2023/06/24 02:25:06;;;;;;;;;12.75;9.00;;;;;15.46;69.32;100715.09;5096247;28;8837;-59
2023/06/24 02:27:33;;;;;;;;;10.75;10.25;;;;;15.45;69.30;100716.06;5096100;28;8868;-60
2023/06/24 02:30:01;;;;;;;;;9.00;8.50;;;;;15.45;69.04;100716.06;5095627;28;8837;-60
2023/06/24 02:32:29;;;;;;;;;6.75;6.75;;;;;15.43;69.22;100718.03;5095451;28;8825;-60
2023/06/24 02:34:57;;;;;;;;;10.00;9.00;;;;;15.41;68.94;100722.69;5096256;28;8852;-60
2023/06/24 02:37:24;;;;;;;;;10.00;9.50;;;;;15.41;69.22;100720.00;5096221;28;8833;-60
2023/06/24 02:39:52;;;;;;;;;6.25;6.25;;;;;15.40;69.13;100721.00;5095571;28;8841;-60
2023/06/24 02:42:19;;;;;;;;;12.50;10.00;;;;;15.39;69.29;100714.75;5096262;28;8849;-60
2023/06/24 02:44:47;;;;;;;;;10.00;9.50;;;;;15.38;69.15;100715.75;5095634;28;9479;-60
2023/06/24 02:47:15;;;;;;;;;4.50;3.25;;;;;15.36;68.96;100716.84;5095845;28;8846;-59
2023/06/24 02:49:43;;;;;;;;;6.00;6.00;;;;;15.34;68.95;100713.47;5095178;28;8833;-60
2023/06/24 02:52:10;;;;;;;;;11.00;9.75;;;;;15.33;68.84;100715.28;5095865;28;8825;-58
2023/06/24 02:54:39;;;;;;;;;8.00;7.50;;;;;15.33;69.11;100720.66;5096036;28;8837;-59
2023/06/24 02:57:07;;;;;;;;;10.50;8.50;;;;;15.33;69.08;100719.81;5095650;28;8848;-58
2023/06/24 02:59:35;;;;;;;;;12.25;11.00;;;;;15.32;69.35;100724.31;5095380;28;8843;-59
2023/06/24 03:02:03;;;;;;;;;8.00;7.00;;;;;15.31;69.05;100722.63;5095964;28;8872;-60
2023/06/24 03:04:30;;;;;;;;;10.75;10.00;;;;;15.32;69.41;100720.81;5095402;28;8844;-60
2023/06/24 03:06:59;;;;;;;;;12.00;11.50;;;;;15.30;69.01;100717.34;5095268;28;8960;-59
2023/06/24 03:09:28;;;;;;;;;9.00;9.00;;;;;15.29;69.04;100721.03;5095591;28;8833;-60
2023/06/24 03:11:56;;;;;;;;;10.00;10.00;;;;;15.29;69.56;100719.22;5095051;28;8844;-57
2023/06/24 03:14:24;;;;;;;;;10.75;10.00;;;;;15.31;69.00;100719.09;5094372;28;8851;-59
2023/06/24 03:16:51;;;;;;;;;13.00;12.00;;;;;15.31;69.39;100713.72;5095016;28;8849;-59
2023/06/24 03:19:19;;;;;;;;;11.50;10.00;;;;;15.31;69.01;100725.31;5094850;28;8833;-59
2023/06/24 03:21:47;;;;;;;;;12.50;12.50;;;;;15.33;69.50;100722.50;5095862;28;9519;-59
2023/06/24 03:24:15;;;;;;;;;12.25;11.75;;;;;15.33;69.40;100722.50;5095828;28;8837;-59
2023/06/24 03:26:42;;;;;;;;;12.00;11.50;;;;;15.32;68.98;100721.66;5095152;28;8835;-58
2023/06/24 03:29:11;;;;;;;;;14.00;13.00;;;;;15.34;69.35;100725.06;5095549;28;8821;-59
2023/06/24 03:31:44;;;;;;;;;10.00;9.00;;;;;15.32;69.65;100727.00;5095489;28;8868;-58
2023/06/24 03:34:13;;;;;;;;;9.50;9.00;;;;;15.29;69.21;100726.38;5095826;28;8847;-58
2023/06/24 03:36:41;;;;;;;;;11.00;11.00;;;;;15.30;69.67;100722.72;5093814;28;8841;-58
2023/06/24 03:39:08;;;;;;;;;14.00;12.00;;;;;15.28;69.08;100720.19;5094583;28;8848;-58
2023/06/24 03:41:36;;;;;;;;;9.00;7.00;;;;;15.28;69.08;100722.00;5094263;28;8915;-58
2023/06/24 03:44:04;;;;;;;;;7.25;7.00;;;;;15.29;69.42;100723.72;5094818;28;8853;-57
2023/06/24 03:46:33;;;;;;;;;7.50;7.00;;;;;15.28;69.19;100720.19;5094448;28;8830;-59
2023/06/24 03:49:01;;;;;;;;;9.50;9.00;;;;;15.29;69.52;100718.34;5094900;28;8871;-58
2023/06/24 03:51:28;;;;;;;;;12.75;10.00;;;;;15.31;69.21;100724.44;5094588;28;8859;-58
2023/06/24 03:53:56;;;;;;;;;9.75;9.00;;;;;15.32;69.52;100731.53;5094615;28;8849;-60
2023/06/24 03:56:24;;;;;;;;;11.00;10.00;;;;;15.34;69.15;100726.88;5094739;28;8853;-59
2023/06/24 03:58:52;;;;;;;;;12.75;10.00;;;;;15.37;69.13;100726.59;5094986;28;8958;-60
2023/06/24 04:01:20;;;;;;;;;10.00;9.50;;;;;15.40;69.21;100724.50;5097810;28;8845;-60
2023/06/24 04:03:47;;;;;;;;;9.25;9.25;;;;;15.45;68.99;100718.75;5098626;28;8853;-60
2023/06/24 04:06:15;;;;;;;;;13.00;12.00;;;;;15.49;68.76;100728.25;5098149;28;8829;-59
2023/06/24 04:08:44;;;;;;;;;11.50;11.50;;;;;15.54;69.12;100723.34;5097420;28;8851;-60
2023/06/24 04:11:12;;;;;;;;;9.25;9.00;;;;;15.59;68.93;100734.50;5098054;28;9507;-59
2023/06/24 04:13:40;;;;;;;;;10.00;10.00;;;;;15.66;68.40;100736.53;5096754;28;8855;-59
2023/06/24 04:16:07;;;;;;;;;9.50;9.50;;;;;15.73;68.76;100739.50;5097712;28;8853;-59
2023/06/24 04:18:37;;;;;;;;;13.50;11.25;;;;;15.81;68.61;100723.56;5096284;28;9510;-60
2023/06/24 04:21:04;;;;;;;;;11.50;11.50;;;;;15.90;68.45;100728.13;5097406;28;8844;-59
2023/06/24 04:23:32;;;;;;;;;11.00;10.00;;;;;16.00;68.05;100729.00;5097198;28;8877;-59
2023/06/24 04:26:00;;;;;;;;;10.00;9.25;;;;;16.12;68.19;100725.22;5097467;28;8849;-60
2023/06/24 04:28:28;;;;;;;;;13.00;13.00;;;;;16.25;67.15;100724.81;5097382;28;8862;-58
2023/06/24 04:30:55;;;;;;;;;5.75;5.50;;;;;16.40;67.72;100728.00;5097683;28;8825;-59
2023/06/24 04:33:24;;;;;;;;;13.00;9.50;;;;;16.50;67.13;100732.38;5097355;28;8864;-60
2023/06/24 04:35:53;;;;;;;;;6.25;6.00;;;;;16.60;67.05;100740.47;5096147;28;8832;-58
2023/06/24 04:38:24;;;;;;;;;12.25;12.25;;;;;16.67;66.72;100737.06;5097067;28;8845;-57
2023/06/24 04:40:52;;;;;;;;;11.25;9.50;;;;;16.76;66.55;100735.34;5097225;28;8825;-58
2023/06/24 04:43:19;;;;;;;;;11.50;10.25;;;;;16.85;66.23;100735.38;5097336;28;8837;-57
2023/06/24 04:45:47;;;;;;;;;10.00;8.50;;;;;16.92;66.37;100731.13;5097630;28;8869;-57
2023/06/24 04:48:15;;;;;;;;;12.00;10.50;;;;;16.98;66.52;100730.53;5097931;28;9033;-58
2023/06/24 04:50:43;;;;;;;;;12.50;11.50;;;;;17.03;66.12;100730.97;5098020;28;8833;-59
2023/06/24 04:53:10;;;;;;;;;16.00;15.50;;;;;17.05;66.14;100723.59;5097931;28;8951;-58
2023/06/24 04:55:38;;;;;;;;;6.25;4.50;;;;;17.11;66.62;100727.56;5097817;28;8825;-59
2023/06/24 04:58:06;;;;;;;;;12.75;11.50;;;;;17.14;66.53;100730.81;5098140;28;8829;-60
2023/06/24 05:00:34;;;;;;;;;7.00;6.50;;;;;17.21;65.85;100728.38;5097814;28;8833;-59
2023/06/24 05:03:02;;;;;;;;;13.00;12.25;;;;;17.31;66.29;100734.59;5096864;28;8829;-60
2023/06/24 05:05:30;;;;;;;;;8.50;8.50;;;;;17.40;65.99;100734.59;5098114;28;8837;-58
2023/06/24 05:08:01;;;;;;;;;13.00;8.80;;;;;17.48;65.52;100729.31;5097200;28;8848;-60
2023/06/24 05:10:29;;;;;;;;;17.50;13.25;;;;;17.58;65.95;100726.59;5095815;28;8968;-59
2023/06/24 05:12:56;;;;;;;;;12.60;11.20;;;;;17.59;65.46;100731.84;5097126;28;8851;-58
2023/06/24 05:15:24;;;;;;;;;15.40;12.80;;;;;17.58;65.94;100729.28;5097596;28;8861;-57
2023/06/24 05:17:52;;;;;;;;;7.80;6.80;;;;;17.56;65.94;100732.16;5097381;28;8859;-58
2023/06/24 05:20:21;;;;;;;;;10.40;10.40;;;;;17.55;66.37;100730.44;5096793;28;8861;-59
2023/06/24 05:22:48;;;;;;;;;11.20;10.40;;;;;17.56;66.21;100736.69;5097173;28;8856;-58
2023/06/24 05:25:16;;;;;;;;;11.00;9.60;;;;;17.61;65.91;100731.72;5096796;28;8843;-60
2023/06/24 05:27:44;;;;;;;;;12.40;12.00;;;;;17.69;65.89;100729.97;5097293;28;8845;-60
2023/06/24 05:30:12;;;;;;;;;12.00;10.40;;;;;17.79;65.80;100722.72;5097231;28;8841;-57
2023/06/24 05:32:40;;;;;;;;;9.00;8.60;;;;;17.92;65.87;100725.88;5096023;28;8825;-60
2023/06/24 05:35:08;;;;;;;;;13.20;11.60;;;;;18.05;64.94;100725.53;5096858;28;8908;-60
2023/06/24 05:37:35;;;;;;;;;10.00;10.00;;;;;18.19;65.05;100728.59;5096982;28;8821;-59
2023/06/24 05:40:05;;;;;;;;;9.00;8.20;;;;;18.32;65.03;100729.09;5096723;28;8897;-60
2023/06/24 05:42:33;;;;;;;;;12.20;10.00;;;;;18.46;64.63;100717.81;5097338;28;8837;-60
2023/06/24 05:45:01;;;;;;;;;11.20;9.60;;;;;18.56;64.51;100718.56;5095606;28;8849;-61
2023/06/24 05:47:29;;;;;;;;;7.40;6.40;;;;;18.65;64.49;100717.63;5096199;28;8853;-60
2023/06/24 05:49:56;;;;;;;;;13.00;12.00;;;;;18.74;64.05;100719.41;5096689;28;8848;-60
2023/06/24 05:52:24;;;;;;;;;11.60;10.80;;;;;18.81;64.08;100720.47;5096787;28;8859;-59
2023/06/24 05:54:52;;;;;;;;;6.60;4.40;;;;;18.91;63.69;100723.94;5096171;28;8929;-60
2023/06/24 05:57:20;;;;;;;;;8.20;7.40;;;;;19.03;63.56;100720.00;5095909;28;8837;-60
2023/06/24 05:59:47;;;;;;;;;11.80;10.40;;;;;19.17;63.49;100719.44;5096000;28;8837;-60
2023/06/24 06:02:15;;;;;;;;;15.40;11.60;;;;;19.39;63.10;100712.69;5095512;28;8825;-60
2023/06/24 06:04:43;;;;;;;;;7.40;6.60;;;;;19.59;63.01;100724.97;5095344;28;8902;-60
2023/06/24 06:07:11;;;;;;;;;7.60;6.60;;;;;19.77;62.54;100720.31;5095693;28;8829;-60
2023/06/24 06:09:39;;;;;;;;;12.80;12.00;;;;;19.91;62.13;100726.00;5095279;28;9608;-61
2023/06/24 06:12:06;;;;;;;;;8.20;7.00;;;;;20.04;61.93;100712.84;5095555;28;8845;-60
2023/06/24 06:14:34;;;;;;;;;7.00;5.80;;;;;20.16;61.71;100722.41;5095748;28;8987;-60
2023/06/24 06:17:02;;;;;;;;;11.40;9.00;;;;;20.26;61.82;100723.09;5095734;28;8841;-59
2023/06/24 06:19:29;;;;;;;;;11.80;10.00;;;;;20.30;62.25;100731.72;5096114;28;8939;-60
2023/06/24 06:21:57;;;;;;;;;14.00;13.40;;;;;20.31;62.27;100718.03;5095428;28;8833;-60
2023/06/24 06:24:25;;;;;;;;;12.20;11.80;;;;;20.33;62.59;100724.13;5096201;28;9545;-60
2023/06/24 06:26:55;;;;;;;;;13.80;13.20;;;;;20.33;62.48;100723.31;5095457;28;8813;-60
2023/06/24 06:29:23;;;;;;;;;9.20;8.60;;;;;20.32;62.39;100724.31;5095623;28;8829;-60
2023/06/24 06:31:52;;;;;;;;;10.80;9.80;;;;;20.32;62.70;100724.31;5095863;28;8853;-60
2023/06/24 06:34:20;;;;;;;;;12.40;9.40;;;;;20.42;62.76;100723.16;5094970;28;8845;-61
2023/06/24 06:36:48;;;;;;;;;13.40;13.40;;;;;20.61;61.95;100725.56;5095516;28;8837;-60
2023/06/24 06:55:09;;;;;;;;;12.80;11.00;;;;;21.14;61.50;100734.94;5094794;28;8794;-60
2023/06/24 06:57:37;;;;;;;;;13.80;12.40;;;;;21.25;61.29;100736.47;5092973;28;8834;-60
2023/06/24 07:00:04;;;;;;;;;9.80;9.00;;;;;21.35;61.01;100737.13;5094418;28;9530;-59
2023/06/24 07:02:32;;;;;;;;;10.40;10.40;;;;;21.46;61.37;100734.03;5094625;28;9609;-60
2023/06/24 07:05:03;;;;;;;;;11.00;10.40;;;;;21.60;60.87;100733.34;5093507;28;8853;-58
2023/06/24 07:07:32;;;;;;;;;10.20;8.20;;;;;21.78;60.44;100742.16;5094771;28;9527;-59
2023/06/24 07:10:00;;;;;;;;;10.20;9.20;;;;;21.96;60.18;100740.03;5094814;28;8851;-60
2023/06/24 07:12:28;;;;;;;;;10.00;8.80;;;;;22.11;59.59;100735.56;5094423;28;8982;-60
2023/06/24 07:14:55;;;;;;;;;8.60;8.20;;;;;22.21;60.18;100733.47;5095043;28;8833;-60
2023/06/24 07:17:23;;;;;;;;;11.40;11.20;;;;;22.38;59.68;100729.69;5094725;28;8886;-60
2023/06/24 07:19:51;;;;;;;;;14.20;12.00;;;;;22.61;58.95;100730.59;5094640;28;8870;-59
2023/06/24 07:22:19;;;;;;;;;11.20;10.00;;;;;22.83;58.98;100737.91;5094606;28;9272;-60
2023/06/24 07:24:47;;;;;;;;;11.80;11.60;;;;;22.99;58.75;100732.34;5094413;28;8852;-59
2023/06/24 07:27:14;;;;;;;;;10.60;10.20;;;;;23.14;58.14;100725.91;5093375;28;8991;-60
2023/06/24 07:33:10;;;;;;;;;11.80;11.20;;;;;23.44;57.99;100732.31;5095598;28;8782;-60
2023/06/24 07:38:41;;;;;;;;;9.60;9.40;;;;;23.96;57.04;100735.84;5099912;28;8770;-59
2023/06/24 07:41:09;;;;;;;;;10.00;9.00;;;;;24.13;57.12;100740.88;5096931;28;8837;-60
2023/06/24 07:43:37;;;;;;;;;12.60;11.40;;;;;24.18;56.68;100733.00;5098881;28;8857;-60
2023/06/24 07:46:05;;;;;;;;;12.20;11.60;;;;;24.25;56.65;100741.25;5096460;28;8853;-58
2023/06/24 07:48:33;;;;;;;;;9.00;9.00;;;;;24.31;56.58;100738.63;5097842;28;8925;-59
2023/06/24 07:51:00;;;;;;;;;12.40;12.20;;;;;24.39;56.33;100735.78;5097820;28;8837;-60
2023/06/24 07:53:28;;;;;;;;;9.20;9.20;;;;;24.51;56.02;100733.41;5097462;28;8833;-60
2023/06/24 07:55:56;;;;;;;;;10.80;10.00;;;;;24.54;56.01;100731.16;5096994;28;8849;-59
2023/06/24 07:58:24;;;;;;;;;7.20;7.20;;;;;24.59;56.02;100722.44;5097620;28;8903;-59
2023/06/24 08:00:52;;;;;;;;;6.40;5.00;;;;;24.62;56.08;100719.31;5097265;28;8845;-59
2023/06/24 08:03:21;;;;;;;;;12.40;10.40;;;;;24.69;56.18;100720.22;5097804;28;8856;-60
2023/06/24 08:05:49;;;;;;;;;10.80;10.00;;;;;24.77;55.97;100720.97;5097610;28;8845;-59
2023/06/24 08:08:19;;;;;;;;;9.00;8.60;;;;;24.88;55.78;100728.59;5097856;28;8837;-59
2023/06/24 08:10:47;;;;;;;;;10.60;10.20;;;;;25.00;55.33;100726.19;5097706;28;8842;-59
2023/06/24 08:13:15;;;;;;;;;13.20;12.20;;;;;25.09;55.09;100719.59;5097859;28;8964;-58
2023/06/24 08:15:43;;;;;;;;;11.40;11.00;;;;;25.19;55.54;100720.09;5096875;28;8849;-59
2023/06/24 08:18:11;;;;;;;;;10.60;10.60;;;;;25.31;54.99;100727.56;5096757;28;8933;-59
2023/06/24 08:20:39;;;;;;;;;11.20;11.20;;;;;25.42;54.42;100729.78;5096627;28;8848;-58
2023/06/24 08:23:09;;;;;;;;;9.80;9.20;;;;;25.52;54.30;100724.81;5097370;28;8860;-58
2023/06/24 08:54:06;;;;;;;;;14.60;12.20;;;;;25.75;54.31;100728.13;5097105;28;8806;-59
2023/06/24 08:56:34;;;;;;;;;10.40;10.00;;;;;25.62;55.00;100722.56;5095796;28;8938;-58
2023/06/24 08:59:01;;;;;;;;;14.00;12.00;;;;;25.64;54.64;100715.88;5095734;28;8837;-60
2023/06/24 09:01:30;;;;;;;;;8.60;8.60;;;;;25.79;54.79;100716.59;5095803;28;8979;-59
2023/06/24 09:03:58;;;;;;;;;18.60;15.00;;;;;25.94;54.94;100721.94;5096394;28;8845;-61
2023/06/24 09:06:26;;;;;;;;;13.60;12.00;;;;;26.00;53.86;100716.53;5096059;28;9697;-59
2023/06/24 09:08:55;;;;;;;;;12.20;12.20;;;;;26.06;54.24;100718.47;5095222;28;8837;-59
2023/06/24 09:11:23;;;;;;;;;14.00;12.00;;;;;26.20;53.81;100713.91;5095446;28;8875;-59
2023/06/24 09:13:51;;;;;;;;;11.80;11.60;;;;;26.36;53.49;100711.66;5095400;28;8976;-59
2023/06/24 09:16:19;;;;;;;;;11.40;10.80;;;;;26.48;53.14;100698.25;5095739;28;9531;-59
2023/06/24 09:18:48;;;;;;;;;16.00;15.60;;;;;26.61;53.21;100701.03;5095733;28;8865;-59
2023/06/24 09:21:16;;;;;;;;;16.80;15.20;;;;;26.67;52.63;100695.59;5094084;28;8857;-59
2023/06/24 09:23:43;;;;;;;;;15.40;13.40;;;;;26.60;53.23;100700.19;5094969;28;8841;-58
2023/06/24 09:26:12;;;;;;;;;12.20;11.20;;;;;26.55;53.95;100697.22;5096008;28;8865;-59
2023/06/24 09:28:40;;;;;;;;;11.00;8.40;;;;;26.53;52.83;100699.34;5095859;28;8932;-59
2023/06/24 09:31:08;;;;;;;;;13.40;12.80;;;;;26.34;54.01;100704.72;5094920;28;8925;-59
2023/06/24 09:33:46;;;;;;;;;17.20;16.40;;;;;26.15;53.43;100703.59;5095691;28;8833;-59
2023/06/24 09:36:15;;;;;;;;;16.20;15.80;;;;;26.15;54.13;100703.59;5095695;28;8818;-60
2023/06/24 09:38:44;;;;;;;;;18.00;16.20;;;;;26.33;53.47;100698.38;5095546;28;9507;-60
2023/06/24 09:41:12;;;;;;;;;14.60;14.40;;;;;26.58;53.20;100698.72;5094127;28;8914;-59
2023/06/24 09:43:42;;;;;;;;;15.60;14.80;;;;;26.82;52.96;100688.06;5094871;28;9468;-61
2023/06/24 09:46:10;;;;;;;;;15.00;14.40;;;;;27.07;52.28;100680.91;5095565;28;9499;-59
2023/06/24 09:48:38;;;;;;;;;19.40;16.60;;;;;27.25;51.69;100678.41;5094791;28;8852;-60
2023/06/24 09:51:06;;;;;;;;;14.20;14.20;;;;;27.39;51.35;100680.06;5093708;28;8840;-59
2023/06/24 09:53:34;;;;;;;;;16.80;15.80;;;;;27.49;51.48;100680.50;5093674;28;8935;-60
2023/06/24 09:56:03;;;;;;;;;11.20;9.60;;;;;27.64;51.22;100677.50;5093403;28;8920;-59
2023/06/24 09:58:31;;;;;;;;;14.20;12.80;;;;;27.69;51.18;100685.94;5093274;28;9637;-59
2023/06/24 10:00:59;;;;;;;;;16.60;15.60;;;;;27.73;51.41;100668.88;5093636;28;8924;-59
2023/06/24 10:03:27;;;;;;;;;17.80;17.20;;;;;27.90;50.44;100670.09;5093991;28;8832;-60
2023/06/24 10:05:55;;;;;;;;;19.20;16.20;;;;;28.17;50.64;100659.88;5094043;28;8856;-60
2023/06/24 10:08:24;;;;;;;;;16.80;15.40;;;;;28.29;49.62;100667.19;5094406;28;8848;-60
2023/06/24 10:10:52;;;;;;;;;16.00;15.40;;;;;28.53;49.70;100660.16;5094359;28;8860;-59
2023/06/24 10:13:20;;;;;;;;;18.20;18.20;;;;;28.83;49.08;100667.50;5094486;28;8837;-59
2023/06/24 10:15:48;;;;;;;;;17.20;15.60;;;;;29.11;48.44;100654.25;5094606;28;8841;-59
2023/06/24 10:18:17;;;;;;;;;16.00;15.80;;;;;29.45;47.93;100652.88;5092892;28;8865;-60
2023/06/24 10:20:45;;;;;;;;;17.40;16.80;;;;;29.74;47.05;100649.44;5093800;28;8837;-59
2023/06/24 10:23:13;;;;;;;;;17.60;15.60;;;;;29.97;47.44;100644.94;5093372;28;8853;-59
2023/06/24 10:25:41;;;;;;;;;16.00;15.80;;;;;30.11;47.18;100646.44;5094070;28;8888;-60
2023/06/24 10:28:09;;;;;;;;;14.00;13.00;;;;;30.11;47.38;100646.44;5094458;28;8884;-59
2023/06/24 10:30:37;;;;;;;;;13.40;13.20;;;;;30.25;47.34;100636.97;5094074;28;8837;-59
2023/06/24 10:33:05;;;;;;;;;15.80;15.00;;;;;30.58;46.42;100629.91;5093686;28;8857;-59
2023/06/24 10:35:34;;;;;;;;;13.40;13.40;;;;;30.97;46.23;100634.81;5093838;28;8849;-60
2023/06/24 10:38:03;;;;;;;;;16.80;14.20;;;;;31.35;46.05;100631.66;5093131;28;8861;-59
2023/06/24 10:40:31;;;;;;;;;11.80;11.80;;;;;31.67;44.96;100630.19;5092510;28;8848;-59
2023/06/24 10:43:00;;;;;;;;;13.80;13.00;;;;;32.05;44.81;100622.22;5093822;28;8845;-60
2023/06/24 10:45:29;;;;;;;;;14.00;12.40;;;;;32.39;44.42;100622.13;5093686;28;8864;-59
2023/06/24 10:47:59;;;;;;;;;13.60;13.00;;;;;32.76;44.22;100617.88;5094129;28;8865;-60
2023/06/24 10:50:27;;;;;;;;;14.80;14.20;;;;;33.13;43.48;100618.19;5093438;28;8845;-60
2023/06/24 10:52:56;;;;;;;;;14.40;14.00;;;;;33.28;43.74;100612.94;5093700;28;8938;-60
2023/06/24 10:55:24;;;;;;;;;14.60;14.60;;;;;33.39;43.44;100620.31;5094275;28;8853;-60
2023/06/24 10:57:52;;;;;;;;;10.40;9.80;;;;;33.44;43.20;100617.63;5093028;28;8841;-60
2023/06/24 11:00:20;;;;;;;;;11.00;11.00;;;;;33.53;43.29;100610.56;5093353;28;8832;-60
2023/06/24 11:02:48;;;;;;;;;9.40;9.40;;;;;33.68;42.91;100616.31;5094214;28;8859;-59
2023/06/24 11:05:19;;;;;;;;;15.20;13.80;;;;;33.02;44.02;100620.00;5094001;28;8849;-60
2023/06/24 11:07:47;;;;;;;;;10.00;10.00;;;;;32.46;44.67;100610.94;5093651;28;8871;-62
2023/06/24 11:10:15;;;;;;;;;14.00;13.60;;;;;32.74;45.15;100610.91;5098416;28;8841;-60
2023/06/24 11:12:44;;;;;;;;;10.80;10.60;;;;;33.12;44.01;100605.47;5098771;28;8857;-62
2023/06/24 11:15:12;;;;;;;;;18.00;17.00;;;;;33.47;43.28;100600.53;5096834;28;8853;-62
2023/06/24 11:17:40;;;;;;;;;13.80;12.20;;;;;33.93;42.58;100606.47;5096236;28;8861;-59
2023/06/24 11:20:08;;;;;;;;;15.40;14.40;;;;;33.75;42.60;100598.47;5096625;28;8875;-63
2023/06/24 11:22:37;;;;;;;;;9.80;9.00;;;;;33.90;43.07;100600.59;5096568;28;8844;-60
2023/06/24 11:25:05;;;;;;;;;11.00;10.60;;;;;34.35;42.04;100592.88;5096241;28;8849;-60
2023/06/24 11:27:33;;;;;;;;;12.00;11.60;;;;;34.79;41.39;100583.38;5096751;28;8872;-60
2023/06/24 11:30:02;;;;;;;;;9.20;9.20;;;;;34.93;41.01;100590.09;5097193;28;8829;-60
2023/06/24 11:32:31;;;;;;;;;12.80;11.80;;;;;34.95;41.03;100590.69;5096614;28;9521;-60
2023/06/24 11:34:59;;;;;;;;;10.40;10.40;;;;;35.03;41.45;100595.75;5097312;28;8930;-60
2023/06/24 11:37:27;;;;;;;;;13.00;13.00;;;;;35.26;40.38;100598.97;5096941;28;8888;-61
2023/06/24 11:39:55;;;;;;;;;13.80;12.80;;;;;35.52;40.61;100594.44;5097530;28;8871;-61
2023/06/24 11:42:23;;;;;;;;;11.80;10.80;;;;;35.77;40.05;100595.44;5097634;28;8867;-60
2023/06/24 11:44:54;;;;;;;;;13.00;12.40;;;;;36.04;39.91;100583.06;5098036;28;8857;-59
2023/06/24 11:47:22;;;;;;;;;13.20;12.80;;;;;36.11;39.59;100586.41;5097724;28;8887;-60
2023/06/24 11:49:50;;;;;;;;;12.00;10.00;;;;;35.53;40.25;100596.09;5098815;28;8844;-59
2023/06/24 11:52:18;;;;;;;;;13.40;13.40;;;;;34.36;42.35;100583.47;5097320;28;8845;-60
2023/06/24 11:54:46;;;;;;;;;12.40;11.80;;;;;33.28;44.44;100593.59;5097652;28;8871;-59
2023/06/24 11:57:15;;;;;;;;;11.00;11.00;;;;;32.54;45.79;100583.78;5097726;28;8860;-59
2023/06/24 11:59:43;;;;;;;;;9.80;9.20;;;;;32.73;44.51;100579.75;5097012;28;8833;-59
2023/06/24 12:02:11;;;;;;;;;10.00;9.40;;;;;33.46;43.72;100579.53;5096922;28;9585;-59
2023/06/24 12:04:40;;;;;;;;;9.40;9.20;;;;;34.33;42.66;100578.44;5097323;28;9529;-60
2023/06/24 12:07:09;;;;;;;;;8.60;8.60;;;;;35.04;41.13;100569.72;5097568;28;8884;-59
2023/06/24 12:09:38;;;;;;;;;9.80;9.40;;;;;35.47;39.58;100577.78;5096040;28;8925;-59
2023/06/24 12:12:07;;;;;;;;;11.80;11.00;;;;;35.78;39.36;100565.78;5096504;28;9522;-59
2023/06/24 12:14:35;;;;;;;;;13.20;13.20;;;;;36.08;39.25;100561.16;5097030;28;9507;-59
2023/06/24 12:17:03;;;;;;;;;11.80;11.80;;;;;36.14;38.94;100554.53;5096932;28;8830;-59
2023/06/24 12:19:31;;;;;;;;;12.40;12.40;;;;;36.18;38.95;100556.50;5096247;28;8841;-60
2023/06/24 12:21:59;;;;;;;;;11.20;9.60;;;;;36.32;38.72;100557.63;5096172;28;8845;-59